Time,TemperatureF,DewpointF,PressureIn,WindDirection,WindDirectionDegrees,WindSpeedMPH,WindSpeedGustMPH,Humidity,HourlyPrecipIn,Conditions,Clouds,dailyrainin,SoftwareType,DateUTC
2015-02-01 00:23:00,32.0,27.0,-100.00,WNW,285,3.0,4.0,80,0.00,,,-99.99,,2015-02-01 05:23:00,
2015-02-01 00:52:00,33.0,26.0,-100.00,WSW,245,1.0,2.0,76,0.00,,,-99.99,,2015-02-01 05:52:00,
2015-02-01 01:52:00,32.0,27.0,-100.00,NW,305,2.0,6.0,81,0.00,,,-99.99,,2015-02-01 06:52:00,
2015-02-01 02:23:00,31.0,30.0,-100.00,ESE,105,0.0,0.0,95,0.00,,,-99.99,,2015-02-01 07:23:00,
2015-02-01 02:42:00,31.0,30.0,-100.00,NNE,30,0.0,0.0,97,0.00,,,-99.99,,2015-02-01 07:42:00,
2015-02-01 02:52:00,31.0,31.0,-100.00,WSW,250,5.0,7.0,97,0.00,,,-99.99,,2015-02-01 07:52:00,
2015-02-01 03:02:00,31.0,31.0,-100.00,WSW,250,5.0,7.0,97,0.00,,,-99.99,,2015-02-01 08:02:00,
2015-02-01 03:23:00,32.0,28.0,-100.00,West,265,2.0,6.0,86,0.00,,,-99.99,,2015-02-01 08:23:00,
2015-02-01 03:42:00,32.0,28.0,-100.00,WSW,240,1.0,3.0,86,0.00,,,-99.99,,2015-02-01 08:42:00,
2015-02-01 03:52:00,32.0,28.0,-100.00,SSW,210,0.0,2.0,86,0.00,,,-99.99,,2015-02-01 08:52:00,
2015-02-01 04:13:00,31.0,28.0,-100.00,SSW,195,0.0,0.0,88,0.00,,,-99.99,,2015-02-01 09:13:00,
2015-02-01 04:54:00,31.0,29.0,-100.00,ENE,70,1.0,3.0,90,0.00,,,-99.99,,2015-02-01 09:54:00,
2015-02-01 05:23:00,31.0,29.0,-100.00,East,80,0.0,2.0,92,0.00,,,-99.99,,2015-02-01 10:23:00,
2015-02-01 05:54:00,31.0,29.0,-100.00,South,190,1.0,4.0,90,0.00,,,-99.99,,2015-02-01 10:54:00,
2015-02-01 06:23:00,32.0,26.0,-100.00,SSW,195,1.0,4.0,78,0.00,,,-99.99,,2015-02-01 11:23:00,
2015-02-01 06:52:00,31.0,30.0,-100.00,SSW,195,1.0,5.0,95,3.94,,,-99.99,,2015-02-01 11:52:00,
2015-02-01 07:22:00,31.0,31.0,-100.00,ESE,105,0.0,2.0,100,0.00,,,-99.99,,2015-02-01 12:22:00,
2015-02-01 08:22:00,32.0,32.0,-100.00,ESE,110,3.0,7.0,100,0.00,,,-99.99,,2015-02-01 13:22:00,
2015-02-01 08:52:00,32.0,32.0,-100.00,ESE,115,2.0,7.0,99,0.00,,,-99.99,,2015-02-01 13:52:00,
2015-02-01 09:22:00,33.0,32.0,-100.00,ESE,115,2.0,5.0,98,0.00,,,-99.99,,2015-02-01 14:22:00,
2015-02-01 09:52:00,33.0,31.0,-100.00,SE,125,0.0,8.0,92,0.00,,,-99.99,,2015-02-01 14:52:00,
2015-02-01 10:22:00,34.0,30.0,-100.00,SSE,165,4.0,9.0,85,0.00,,,-99.99,,2015-02-01 15:22:00,
2015-02-01 10:54:00,36.0,27.0,-100.00,ESE,110,2.0,11.0,69,0.00,,,-99.99,,2015-02-01 15:54:00,
2015-02-01 11:24:00,38.0,23.0,-100.00,SE,145,3.0,7.0,55,0.00,,,-99.99,,2015-02-01 16:24:00,
2015-02-01 11:53:00,39.0,20.0,-100.00,SE,125,5.0,16.0,46,0.00,,,-99.99,,2015-02-01 16:53:00,
2015-02-01 12:23:00,40.0,18.0,-100.00,SSW,205,7.0,15.0,41,0.00,,,-99.99,,2015-02-01 17:23:00,
2015-02-01 12:52:00,41.0,17.0,-100.00,South,180,4.0,14.0,37,0.00,,,-99.99,,2015-02-01 17:52:00,
2015-02-01 13:23:00,43.0,20.0,-100.00,SSW,205,7.0,17.0,39,0.00,,,-99.99,,2015-02-01 18:23:00,
2015-02-01 13:54:00,42.0,27.0,-100.00,SSW,205,11.0,18.0,53,0.00,,,-99.99,,2015-02-01 18:54:00,
2015-02-01 14:23:00,42.0,35.0,-100.00,SW,225,17.0,25.0,75,1.69,,,-99.99,,2015-02-01 19:23:00,
2015-02-01 14:52:00,40.0,36.0,-100.00,SSW,210,8.0,21.0,84,0.55,,,-99.99,,2015-02-01 19:52:00,
2015-02-01 15:22:00,40.0,37.0,-100.00,SE,145,5.0,16.0,88,0.00,,,-99.99,,2015-02-01 20:22:00,
2015-02-01 15:52:00,39.0,37.0,-100.00,SW,220,9.0,17.0,89,0.00,,,-99.99,,2015-02-01 20:52:00,
2015-02-01 16:22:00,39.0,37.0,-100.00,SSW,200,6.0,13.0,92,0.00,,,-99.99,,2015-02-01 21:22:00,
2015-02-01 16:43:00,38.0,38.0,-100.00,SSW,195,6.0,14.0,99,0.00,,,-99.99,,2015-02-01 21:43:00,
2015-02-01 16:53:00,39.0,38.0,-100.00,SSW,200,7.0,15.0,98,0.00,,,-99.99,,2015-02-01 21:53:00,
2015-02-01 17:13:00,38.0,38.0,-100.00,SSW,195,6.0,14.0,99,0.00,,,-99.99,,2015-02-01 22:13:00,
2015-02-01 17:23:00,38.0,38.0,-100.00,SSW,195,6.0,14.0,99,0.00,,,-99.99,,2015-02-01 22:23:00,
2015-02-01 17:34:00,38.0,38.0,-100.00,SSW,195,6.0,14.0,99,0.00,,,-99.99,,2015-02-01 22:34:00,